Sapphire, NC (28774)

2:53 PM EDT on March 28, 2015 (GMT -0400)
LBM Industries Whitewater Rd | | Change Station
CLOSE
Current Station
Personal Weather Station
Location: Sapphire, NC
Elevation: 2963 ft
Nearby Weather Stations
Active Advisory: Freeze Warning Active Notice: Public Information Statement

Elev 2963 ft 35.09 °N, 82.97 °W | Updated 2 minutes ago

Clear
Clear
42.3 °F
Feels Like 38 °F
N
7.0
Wind Variable Wind from WNW
Gusts 7.0 mph

Today
High -- | Low -- °F
--% Chance of Precip.
Yesterday
High -- | Low -- °F
Precip. -- in
7:24 AM 7:49 PM
Waxing Gibbous, 64% visible
Pressure 30.08 in
Visibility 10.0 miles
Clouds Clear
Windchill 38 °F
Dew Point 12 °F
Humidity 29%
Rainfall 0.00 in
Snow Depth Not available.
UV 9 out of 12
Pollen 8.30 out of 12
Air Quality Not available.
Flu Activity Not available.
METAR KAVL 281754Z 34015G22KT 10SM CLR 04/M11 A3006 RMK AO2 SLP184 T00441106 10050 21028 50000

More Conditions Fewer Conditions

Pressure 30.08 in
Visibility 10.0 miles
Clouds Clear
Windchill 38 °F
Dew Point 12 °F
Humidity 29%
Rainfall 0.00 in
Snow Depth Not available.
UV 9 out of 12
Pollen 8.30 out of 12
Air Quality Not available.
Flu Activity Not available.
METAR KAVL 281754Z 34015G22KT 10SM CLR 04/M11 A3006 RMK AO2 SLP184 T00441106 10050 21028 50000

More Conditions Fewer Conditions

10-Day Weather Forecast

Almanac

Astronomy

Mar. 28, 2015 Rise Set
Actual Time
Civil Twilight
Nautical Twilight
Astronomical Twilight
Moon
Length of Visible Light
Length of Day
Tomorrow will be .
, % of the Moon is Illuminated

Today's Extremes

State Highs State Lows

Community

WunderPhotos

Upload Photos

1,809,055 photos uploaded!

WunderBlogs® & News

Nearby

Air Quality

  Air Quality AQ Index Pollutant
Not available.

Snow Depth

Station Depth Elevation

Earthquake Activity

City Distance Mag. Time & Date
Minimum magnitude displayed is 2.5.

Coastal Water Temperatures

Place Temperature

Stations

Nearby Weather Stations

Station Location Temp. Windchill Dew Point Humidity Wind Precip. Elev Updated Type
                   
Freeze Warning
Statement as of 2:42 PM EDT on March 28, 2015

... Freeze warning remains in effect from midnight tonight to
11 am EDT Sunday...

* locations... portions of the North Carolina foothills and
Piedmont... along with far northeast Georgia... and upstate South
Carolina.

* Temperatures... lows tonight ranging from the mid teens in the
higher elevations of the mountains... to the mid 20s in the
Piedmont. By tomorrow afternoon most areas will warm into the
50s.

* Impacts... very cold temperatures will kill sensitive
vegetation that has already started to grow this season.

Precautionary/preparedness actions...

A freeze warning means sub-freezing temperatures are imminent or
highly likely. These conditions will kill crops and other
sensitive vegetation.


Wimberley